Portada
METAR-TAF:

METAR-TAF

Aeroports :

Tambacounda, Senegal

latitud: 13-46N, longitud: 013-41W, altitud: 49 m

Observació

L'informe es va fer fa 8 hores i 40 minuts, a les 07:00 UTC
Vent 4 kt del Nord/Nord-Est
Temperatura 18°C
Humitat 34%
Pressió 1009 hPa
Visibilitat: 8000 m

METAR: GOTT 200700Z 02004KT 8000 NSC 18/02 Q1009

Hora: 15:40 (15:40 UTC)


TAF: manca

Observacions i pronòstics meteorològics de més de 4000 aeroports (METAR i TAF).

Les estacions disponibles són els punts grocs i vermells al mapa.

Posi el ratolí al punt desitjat per veure el nom de l'estació.

Feu clic per veure les observacions i els pronòstics meteorològics.

Per canviar el mapa: feu clic els botons verds amb una creu de color negre per apropar; al botó verd amb un guió per allunyar la imatge; o en les fletxes verdes per a mapes adjacents.


METAR-TAF: